sensor_id;sensor_type;location;lat;lon;timestamp;temperature;humidity
69031;DHT22;56083;48.774;8.942;2023-07-13T00:02:01;17.70;99.90
69031;DHT22;56083;48.774;8.942;2023-07-13T00:04:27;17.60;99.90
69031;DHT22;56083;48.774;8.942;2023-07-13T00:06:53;17.60;99.90
69031;DHT22;56083;48.774;8.942;2023-07-13T00:09:20;17.50;99.90
69031;DHT22;56083;48.774;8.942;2023-07-13T00:11:49;17.50;99.90
69031;DHT22;56083;48.774;8.942;2023-07-13T00:14:15;17.50;99.90
69031;DHT22;56083;48.774;8.942;2023-07-13T00:16:41;17.50;99.90
69031;DHT22;56083;48.774;8.942;2023-07-13T00:19:10;17.50;99.90
69031;DHT22;56083;48.774;8.942;2023-07-13T00:21:35;17.50;99.90
69031;DHT22;56083;48.774;8.942;2023-07-13T00:24:01;17.60;99.90
69031;DHT22;56083;48.774;8.942;2023-07-13T00:26:28;17.70;99.90
69031;DHT22;56083;48.774;8.942;2023-07-13T00:28:57;17.60;99.90
69031;DHT22;56083;48.774;8.942;2023-07-13T00:31:23;17.70;99.90
69031;DHT22;56083;48.774;8.942;2023-07-13T00:33:49;17.70;99.90
69031;DHT22;56083;48.774;8.942;2023-07-13T00:36:14;17.70;99.90
69031;DHT22;56083;48.774;8.942;2023-07-13T00:38:40;17.80;99.90
69031;DHT22;56083;48.774;8.942;2023-07-13T00:41:06;17.90;99.90
69031;DHT22;56083;48.774;8.942;2023-07-13T00:43:32;17.90;99.90
69031;DHT22;56083;48.774;8.942;2023-07-13T00:46:19;18.00;99.90
69031;DHT22;56083;48.774;8.942;2023-07-13T00:48:47;18.00;99.90
69031;DHT22;56083;48.774;8.942;2023-07-13T00:51:16;18.10;99.90
69031;DHT22;56083;48.774;8.942;2023-07-13T00:53:43;18.10;99.90
69031;DHT22;56083;48.774;8.942;2023-07-13T00:56:09;18.10;99.90
69031;DHT22;56083;48.774;8.942;2023-07-13T00:58:36;18.10;99.90
69031;DHT22;56083;48.774;8.942;2023-07-13T01:01:01;18.10;99.90
69031;DHT22;56083;48.774;8.942;2023-07-13T01:03:27;18.00;99.90
69031;DHT22;56083;48.774;8.942;2023-07-13T01:05:54;18.10;99.90
69031;DHT22;56083;48.774;8.942;2023-07-13T01:08:21;18.10;99.90
69031;DHT22;56083;48.774;8.942;2023-07-13T01:10:54;18.00;99.90
69031;DHT22;56083;48.774;8.942;2023-07-13T01:13:21;17.90;99.90
69031;DHT22;56083;48.774;8.942;2023-07-13T01:15:48;17.80;99.90
69031;DHT22;56083;48.774;8.942;2023-07-13T01:18:19;17.80;99.90
69031;DHT22;56083;48.774;8.942;2023-07-13T01:20:54;17.70;99.90
69031;DHT22;56083;48.774;8.942;2023-07-13T01:23:21;17.60;99.90
69031;DHT22;56083;48.774;8.942;2023-07-13T01:25:47;17.50;99.90
69031;DHT22;56083;48.774;8.942;2023-07-13T01:28:17;17.40;99.90
69031;DHT22;56083;48.774;8.942;2023-07-13T01:30:44;17.30;99.90
69031;DHT22;56083;48.774;8.942;2023-07-13T01:33:15;17.20;99.90
69031;DHT22;56083;48.774;8.942;2023-07-13T01:35:42;17.20;99.90
69031;DHT22;56083;48.774;8.942;2023-07-13T01:38:09;17.10;99.90
69031;DHT22;56083;48.774;8.942;2023-07-13T01:40:36;17.10;99.90
69031;DHT22;56083;48.774;8.942;2023-07-13T01:43:02;17.00;99.90
69031;DHT22;56083;48.774;8.942;2023-07-13T01:45:28;16.90;99.90
69031;DHT22;56083;48.774;8.942;2023-07-13T01:47:53;16.90;99.90
69031;DHT22;56083;48.774;8.942;2023-07-13T01:50:19;16.80;99.90
69031;DHT22;56083;48.774;8.942;2023-07-13T01:52:45;16.70;99.90
69031;DHT22;56083;48.774;8.942;2023-07-13T01:55:10;16.60;99.90
69031;DHT22;56083;48.774;8.942;2023-07-13T01:57:36;16.50;99.90
69031;DHT22;56083;48.774;8.942;2023-07-13T02:00:08;16.40;99.90
69031;DHT22;56083;48.774;8.942;2023-07-13T02:02:34;16.20;99.90
69031;DHT22;56083;48.774;8.942;2023-07-13T02:05:00;16.00;99.90
69031;DHT22;56083;48.774;8.942;2023-07-13T02:07:26;15.90;99.90
69031;DHT22;56083;48.774;8.942;2023-07-13T02:09:53;15.70;99.90
69031;DHT22;56083;48.774;8.942;2023-07-13T02:12:19;15.60;99.90
69031;DHT22;56083;48.774;8.942;2023-07-13T02:14:44;15.50;99.90
69031;DHT22;56083;48.774;8.942;2023-07-13T02:17:10;15.40;99.90
69031;DHT22;56083;48.774;8.942;2023-07-13T02:19:36;15.30;99.90
69031;DHT22;56083;48.774;8.942;2023-07-13T02:22:02;15.10;99.90
69031;DHT22;56083;48.774;8.942;2023-07-13T02:24:28;15.10;99.90
69031;DHT22;56083;48.774;8.942;2023-07-13T02:26:53;15.00;99.90
69031;DHT22;56083;48.774;8.942;2023-07-13T02:29:19;15.00;99.90
69031;DHT22;56083;48.774;8.942;2023-07-13T02:31:45;14.90;99.90
69031;DHT22;56083;48.774;8.942;2023-07-13T02:34:10;14.90;99.90
69031;DHT22;56083;48.774;8.942;2023-07-13T02:36:36;14.90;99.90
69031;DHT22;56083;48.774;8.942;2023-07-13T02:39:03;14.90;99.90
69031;DHT22;56083;48.774;8.942;2023-07-13T02:41:29;14.90;99.90
69031;DHT22;56083;48.774;8.942;2023-07-13T02:43:55;14.90;99.90
69031;DHT22;56083;48.774;8.942;2023-07-13T02:46:28;14.90;99.90
69031;DHT22;56083;48.774;8.942;2023-07-13T02:48:54;14.90;99.90
69031;DHT22;56083;48.774;8.942;2023-07-13T02:51:20;14.90;99.90
69031;DHT22;56083;48.774;8.942;2023-07-13T02:53:45;14.90;99.90
69031;DHT22;56083;48.774;8.942;2023-07-13T02:56:11;14.90;99.90
69031;DHT22;56083;48.774;8.942;2023-07-13T02:58:37;14.90;99.90
69031;DHT22;56083;48.774;8.942;2023-07-13T03:01:08;14.80;99.90
69031;DHT22;56083;48.774;8.942;2023-07-13T03:03:35;14.80;99.90
69031;DHT22;56083;48.774;8.942;2023-07-13T03:06:02;14.70;99.90
69031;DHT22;56083;48.774;8.942;2023-07-13T03:08:29;14.70;99.90
69031;DHT22;56083;48.774;8.942;2023-07-13T03:11:08;14.70;99.90
69031;DHT22;56083;48.774;8.942;2023-07-13T03:13:34;14.60;99.90
69031;DHT22;56083;48.774;8.942;2023-07-13T03:16:00;14.60;99.90
69031;DHT22;56083;48.774;8.942;2023-07-13T03:18:29;14.60;99.90
69031;DHT22;56083;48.774;8.942;2023-07-13T03:20:54;14.50;99.90
69031;DHT22;56083;48.774;8.942;2023-07-13T03:23:21;14.50;99.90
69031;DHT22;56083;48.774;8.942;2023-07-13T03:25:48;14.50;99.90
69031;DHT22;56083;48.774;8.942;2023-07-13T03:28:14;14.40;99.90
69031;DHT22;56083;48.774;8.942;2023-07-13T03:30:41;14.40;99.90
69031;DHT22;56083;48.774;8.942;2023-07-13T03:33:07;14.50;99.90
69031;DHT22;56083;48.774;8.942;2023-07-13T03:35:34;14.50;99.90
69031;DHT22;56083;48.774;8.942;2023-07-13T03:38:01;14.50;99.90
69031;DHT22;56083;48.774;8.942;2023-07-13T03:40:28;14.50;99.90
69031;DHT22;56083;48.774;8.942;2023-07-13T03:42:53;14.40;99.90
69031;DHT22;56083;48.774;8.942;2023-07-13T03:45:19;14.50;99.90
69031;DHT22;56083;48.774;8.942;2023-07-13T03:47:45;14.50;99.90
69031;DHT22;56083;48.774;8.942;2023-07-13T03:50:12;14.60;99.90
69031;DHT22;56083;48.774;8.942;2023-07-13T03:52:37;14.60;99.90
69031;DHT22;56083;48.774;8.942;2023-07-13T03:55:03;14.60;99.90
69031;DHT22;56083;48.774;8.942;2023-07-13T03:57:29;14.60;99.90
69031;DHT22;56083;48.774;8.942;2023-07-13T03:59:55;14.60;99.90
69031;DHT22;56083;48.774;8.942;2023-07-13T04:02:20;14.60;99.90
69031;DHT22;56083;48.774;8.942;2023-07-13T04:04:46;14.50;99.90
69031;DHT22;56083;48.774;8.942;2023-07-13T04:07:12;14.60;99.90
69031;DHT22;56083;48.774;8.942;2023-07-13T04:09:38;14.60;99.90
69031;DHT22;56083;48.774;8.942;2023-07-13T04:12:06;14.60;99.90
69031;DHT22;56083;48.774;8.942;2023-07-13T04:14:32;14.60;99.90
69031;DHT22;56083;48.774;8.942;2023-07-13T04:16:58;14.70;99.90
69031;DHT22;56083;48.774;8.942;2023-07-13T04:19:23;14.70;99.90
69031;DHT22;56083;48.774;8.942;2023-07-13T04:21:51;14.70;99.90
69031;DHT22;56083;48.774;8.942;2023-07-13T04:24:17;14.70;99.90
69031;DHT22;56083;48.774;8.942;2023-07-13T04:26:43;14.70;99.90
69031;DHT22;56083;48.774;8.942;2023-07-13T04:29:09;14.70;99.90
69031;DHT22;56083;48.774;8.942;2023-07-13T04:31:34;14.70;99.90
69031;DHT22;56083;48.774;8.942;2023-07-13T04:34:00;14.70;99.90
69031;DHT22;56083;48.774;8.942;2023-07-13T04:36:26;14.60;99.90
69031;DHT22;56083;48.774;8.942;2023-07-13T04:38:52;14.60;99.90
69031;DHT22;56083;48.774;8.942;2023-07-13T04:41:19;14.50;99.90
69031;DHT22;56083;48.774;8.942;2023-07-13T04:43:45;14.50;99.90
69031;DHT22;56083;48.774;8.942;2023-07-13T04:46:13;14.50;99.90
69031;DHT22;56083;48.774;8.942;2023-07-13T04:48:39;14.40;99.90
69031;DHT22;56083;48.774;8.942;2023-07-13T04:51:05;14.40;99.90
69031;DHT22;56083;48.774;8.942;2023-07-13T04:53:32;14.40;99.90
69031;DHT22;56083;48.774;8.942;2023-07-13T04:56:00;14.40;99.90
69031;DHT22;56083;48.774;8.942;2023-07-13T04:58:26;14.50;99.90
69031;DHT22;56083;48.774;8.942;2023-07-13T05:00:52;14.60;99.90
69031;DHT22;56083;48.774;8.942;2023-07-13T05:03:17;14.70;99.90
69031;DHT22;56083;48.774;8.942;2023-07-13T05:05:43;14.90;99.90
69031;DHT22;56083;48.774;8.942;2023-07-13T05:08:08;15.10;99.90
69031;DHT22;56083;48.774;8.942;2023-07-13T05:10:35;15.20;99.90
69031;DHT22;56083;48.774;8.942;2023-07-13T05:13:01;15.40;99.90
69031;DHT22;56083;48.774;8.942;2023-07-13T05:15:26;15.60;99.90
69031;DHT22;56083;48.774;8.942;2023-07-13T05:17:52;15.80;99.90
69031;DHT22;56083;48.774;8.942;2023-07-13T05:20:20;16.00;99.90
69031;DHT22;56083;48.774;8.942;2023-07-13T05:22:46;16.10;99.90
69031;DHT22;56083;48.774;8.942;2023-07-13T05:25:14;16.10;99.90
69031;DHT22;56083;48.774;8.942;2023-07-13T05:27:39;16.20;99.90
69031;DHT22;56083;48.774;8.942;2023-07-13T05:30:07;16.20;99.90
69031;DHT22;56083;48.774;8.942;2023-07-13T05:32:36;16.30;99.90
69031;DHT22;56083;48.774;8.942;2023-07-13T05:35:01;16.30;99.90
69031;DHT22;56083;48.774;8.942;2023-07-13T05:37:28;16.40;99.90
69031;DHT22;56083;48.774;8.942;2023-07-13T05:39:53;16.40;99.90
69031;DHT22;56083;48.774;8.942;2023-07-13T05:42:19;16.50;99.90
69031;DHT22;56083;48.774;8.942;2023-07-13T05:44:44;16.60;99.90
69031;DHT22;56083;48.774;8.942;2023-07-13T05:47:10;16.60;99.90
69031;DHT22;56083;48.774;8.942;2023-07-13T05:49:36;16.70;99.90
69031;DHT22;56083;48.774;8.942;2023-07-13T05:52:01;16.60;99.90
69031;DHT22;56083;48.774;8.942;2023-07-13T05:54:30;16.70;99.90
69031;DHT22;56083;48.774;8.942;2023-07-13T05:56:55;16.70;99.90
69031;DHT22;56083;48.774;8.942;2023-07-13T05:59:21;16.80;99.90
69031;DHT22;56083;48.774;8.942;2023-07-13T06:01:47;16.90;99.90
69031;DHT22;56083;48.774;8.942;2023-07-13T06:04:12;16.80;99.90
69031;DHT22;56083;48.774;8.942;2023-07-13T06:06:38;16.80;99.90
69031;DHT22;56083;48.774;8.942;2023-07-13T06:09:04;16.80;99.90
69031;DHT22;56083;48.774;8.942;2023-07-13T06:11:29;16.90;99.90
69031;DHT22;56083;48.774;8.942;2023-07-13T06:13:55;17.00;99.90
69031;DHT22;56083;48.774;8.942;2023-07-13T06:16:21;17.10;99.90
69031;DHT22;56083;48.774;8.942;2023-07-13T06:18:47;17.20;99.90
69031;DHT22;56083;48.774;8.942;2023-07-13T06:21:16;17.40;99.90
69031;DHT22;56083;48.774;8.942;2023-07-13T06:23:42;17.50;99.90
69031;DHT22;56083;48.774;8.942;2023-07-13T06:26:08;17.70;99.90
69031;DHT22;56083;48.774;8.942;2023-07-13T06:28:34;18.00;99.90
69031;DHT22;56083;48.774;8.942;2023-07-13T06:31:01;18.30;99.90
69031;DHT22;56083;48.774;8.942;2023-07-13T06:33:27;18.70;99.90
69031;DHT22;56083;48.774;8.942;2023-07-13T06:35:53;19.00;99.90
69031;DHT22;56083;48.774;8.942;2023-07-13T06:38:20;19.40;99.90
69031;DHT22;56083;48.774;8.942;2023-07-13T06:40:45;19.70;99.90
69031;DHT22;56083;48.774;8.942;2023-07-13T06:43:11;19.90;99.90
69031;DHT22;56083;48.774;8.942;2023-07-13T06:45:42;20.10;99.90
69031;DHT22;56083;48.774;8.942;2023-07-13T06:48:07;20.40;99.90
69031;DHT22;56083;48.774;8.942;2023-07-13T06:50:33;20.50;99.90
69031;DHT22;56083;48.774;8.942;2023-07-13T06:52:59;20.60;99.90
69031;DHT22;56083;48.774;8.942;2023-07-13T06:55:25;20.60;99.90
69031;DHT22;56083;48.774;8.942;2023-07-13T06:57:51;20.60;99.90
69031;DHT22;56083;48.774;8.942;2023-07-13T07:00:17;20.60;99.90
69031;DHT22;56083;48.774;8.942;2023-07-13T07:02:43;20.90;99.90
69031;DHT22;56083;48.774;8.942;2023-07-13T07:05:08;21.10;99.90
69031;DHT22;56083;48.774;8.942;2023-07-13T07:07:34;21.00;99.90
69031;DHT22;56083;48.774;8.942;2023-07-13T07:10:00;21.00;99.90
69031;DHT22;56083;48.774;8.942;2023-07-13T07:12:25;20.90;99.90
69031;DHT22;56083;48.774;8.942;2023-07-13T07:14:51;21.10;99.90
69031;DHT22;56083;48.774;8.942;2023-07-13T07:17:16;21.60;99.90
69031;DHT22;56083;48.774;8.942;2023-07-13T07:19:42;21.80;99.90
69031;DHT22;56083;48.774;8.942;2023-07-13T07:22:08;22.10;99.90
69031;DHT22;56083;48.774;8.942;2023-07-13T07:24:34;22.30;99.90
69031;DHT22;56083;48.774;8.942;2023-07-13T07:26:59;22.40;99.90
69031;DHT22;56083;48.774;8.942;2023-07-13T07:29:25;22.80;99.90
69031;DHT22;56083;48.774;8.942;2023-07-13T07:31:53;23.30;99.90
69031;DHT22;56083;48.774;8.942;2023-07-13T07:34:19;23.40;99.90
69031;DHT22;56083;48.774;8.942;2023-07-13T07:36:44;23.10;99.90
69031;DHT22;56083;48.774;8.942;2023-07-13T07:39:10;23.30;99.90
69031;DHT22;56083;48.774;8.942;2023-07-13T07:41:37;23.50;99.90
69031;DHT22;56083;48.774;8.942;2023-07-13T07:44:03;23.90;99.90
69031;DHT22;56083;48.774;8.942;2023-07-13T07:46:29;24.10;99.90
69031;DHT22;56083;48.774;8.942;2023-07-13T07:48:56;24.10;99.90
69031;DHT22;56083;48.774;8.942;2023-07-13T07:51:21;24.40;99.90
69031;DHT22;56083;48.774;8.942;2023-07-13T07:53:48;24.50;99.90
69031;DHT22;56083;48.774;8.942;2023-07-13T07:56:14;24.90;99.90
69031;DHT22;56083;48.774;8.942;2023-07-13T07:58:41;25.00;99.90
69031;DHT22;56083;48.774;8.942;2023-07-13T08:01:07;24.90;99.50
69031;DHT22;56083;48.774;8.942;2023-07-13T08:03:34;24.80;99.90
69031;DHT22;56083;48.774;8.942;2023-07-13T08:05:59;25.10;99.10
69031;DHT22;56083;48.774;8.942;2023-07-13T08:08:26;25.30;97.70
69031;DHT22;56083;48.774;8.942;2023-07-13T08:10:51;25.90;97.20
69031;DHT22;56083;48.774;8.942;2023-07-13T08:13:17;26.50;95.70
69031;DHT22;56083;48.774;8.942;2023-07-13T08:15:42;27.20;93.60
69031;DHT22;56083;48.774;8.942;2023-07-13T08:18:08;27.40;92.20
69031;DHT22;56083;48.774;8.942;2023-07-13T08:20:38;27.90;90.70
69031;DHT22;56083;48.774;8.942;2023-07-13T08:23:04;27.40;90.60
69031;DHT22;56083;48.774;8.942;2023-07-13T08:25:29;27.80;90.50
69031;DHT22;56083;48.774;8.942;2023-07-13T08:27:55;28.20;89.70
69031;DHT22;56083;48.774;8.942;2023-07-13T08:30:20;28.30;85.20
69031;DHT22;56083;48.774;8.942;2023-07-13T08:32:46;28.10;83.90
69031;DHT22;56083;48.774;8.942;2023-07-13T08:35:12;28.40;81.20
69031;DHT22;56083;48.774;8.942;2023-07-13T08:37:39;28.00;80.50
69031;DHT22;56083;48.774;8.942;2023-07-13T08:40:05;28.30;79.90
69031;DHT22;56083;48.774;8.942;2023-07-13T08:42:42;29.00;77.50
69031;DHT22;56083;48.774;8.942;2023-07-13T08:45:51;30.00;77.30
69031;DHT22;56083;48.774;8.942;2023-07-13T08:48:15;30.10;71.80
69031;DHT22;56083;48.774;8.942;2023-07-13T08:53:46;31.70;69.20
69031;DHT22;56083;48.774;8.942;2023-07-13T08:56:21;30.30;66.60
69031;DHT22;56083;48.774;8.942;2023-07-13T08:58:53;29.20;70.80
69031;DHT22;56083;48.774;8.942;2023-07-13T09:01:22;30.00;71.80
69031;DHT22;56083;48.774;8.942;2023-07-13T09:04:15;31.20;66.60
69031;DHT22;56083;48.774;8.942;2023-07-13T09:06:47;31.40;66.30
69031;DHT22;56083;48.774;8.942;2023-07-13T09:09:34;32.00;62.60
69031;DHT22;56083;48.774;8.942;2023-07-13T09:18:40;33.70;59.20
69031;DHT22;56083;48.774;8.942;2023-07-13T09:21:15;33.70;57.70
69031;DHT22;56083;48.774;8.942;2023-07-13T09:23:41;34.40;56.10
69031;DHT22;56083;48.774;8.942;2023-07-13T09:28:45;34.80;54.20
69031;DHT22;56083;48.774;8.942;2023-07-13T09:31:36;35.60;53.80
69031;DHT22;56083;48.774;8.942;2023-07-13T09:34:00;35.20;52.90
69031;DHT22;56083;48.774;8.942;2023-07-13T09:36:31;33.90;53.70
69031;DHT22;56083;48.774;8.942;2023-07-13T09:39:33;33.40;54.60
69031;DHT22;56083;48.774;8.942;2023-07-13T09:42:16;34.60;53.20
69031;DHT22;56083;48.774;8.942;2023-07-13T09:44:55;34.70;51.90
69031;DHT22;56083;48.774;8.942;2023-07-13T09:47:26;33.90;52.30
69031;DHT22;56083;48.774;8.942;2023-07-13T09:50:01;32.90;53.70
69031;DHT22;56083;48.774;8.942;2023-07-13T09:52:29;32.20;54.70
69031;DHT22;56083;48.774;8.942;2023-07-13T09:55:11;32.20;56.10
69031;DHT22;56083;48.774;8.942;2023-07-13T09:57:47;33.40;52.70
69031;DHT22;56083;48.774;8.942;2023-07-13T10:00:21;33.30;53.00
69031;DHT22;56083;48.774;8.942;2023-07-13T10:05:38;34.40;51.00
69031;DHT22;56083;48.774;8.942;2023-07-13T10:08:04;34.00;52.30
69031;DHT22;56083;48.774;8.942;2023-07-13T10:10:32;34.10;52.50
69031;DHT22;56083;48.774;8.942;2023-07-13T10:12:58;34.30;53.50
69031;DHT22;56083;48.774;8.942;2023-07-13T10:15:25;34.80;52.80
69031;DHT22;56083;48.774;8.942;2023-07-13T10:17:53;34.20;51.00
69031;DHT22;56083;48.774;8.942;2023-07-13T10:20:20;32.90;51.00
69031;DHT22;56083;48.774;8.942;2023-07-13T10:25:19;31.80;53.50
69031;DHT22;56083;48.774;8.942;2023-07-13T10:27:46;31.90;53.90
69031;DHT22;56083;48.774;8.942;2023-07-13T10:30:46;31.00;54.80
69031;DHT22;56083;48.774;8.942;2023-07-13T10:33:10;29.90;55.40
69031;DHT22;56083;48.774;8.942;2023-07-13T10:35:38;29.30;58.40
69031;DHT22;56083;48.774;8.942;2023-07-13T10:38:13;29.00;57.50
69031;DHT22;56083;48.774;8.942;2023-07-13T10:40:45;29.50;57.50
69031;DHT22;56083;48.774;8.942;2023-07-13T10:43:42;29.10;57.20
69031;DHT22;56083;48.774;8.942;2023-07-13T10:46:11;29.70;55.90
69031;DHT22;56083;48.774;8.942;2023-07-13T10:48:40;30.50;55.80
69031;DHT22;56083;48.774;8.942;2023-07-13T10:51:08;32.00;53.90
69031;DHT22;56083;48.774;8.942;2023-07-13T10:53:37;33.20;53.30
69031;DHT22;56083;48.774;8.942;2023-07-13T10:56:19;32.60;52.90
69031;DHT22;56083;48.774;8.942;2023-07-13T10:59:46;31.80;54.20
69031;DHT22;56083;48.774;8.942;2023-07-13T11:01:58;30.90;56.80
69031;DHT22;56083;48.774;8.942;2023-07-13T11:04:44;29.80;57.90
69031;DHT22;56083;48.774;8.942;2023-07-13T11:09:51;29.10;60.20
69031;DHT22;56083;48.774;8.942;2023-07-13T11:17:35;29.40;58.50
69031;DHT22;56083;48.774;8.942;2023-07-13T11:25:31;30.50;57.10
69031;DHT22;56083;48.774;8.942;2023-07-13T11:28:23;29.80;56.80
69031;DHT22;56083;48.774;8.942;2023-07-13T11:30:59;28.70;58.10
69031;DHT22;56083;48.774;8.942;2023-07-13T11:33:49;29.50;57.90
69031;DHT22;56083;48.774;8.942;2023-07-13T11:36:18;32.20;55.90
69031;DHT22;56083;48.774;8.942;2023-07-13T11:39:03;34.00;51.90
69031;DHT22;56083;48.774;8.942;2023-07-13T11:41:37;35.30;50.80
69031;DHT22;56083;48.774;8.942;2023-07-13T11:44:14;35.20;49.00
69031;DHT22;56083;48.774;8.942;2023-07-13T11:46:49;34.30;49.20
69031;DHT22;56083;48.774;8.942;2023-07-13T11:49:21;33.60;51.50
69031;DHT22;56083;48.774;8.942;2023-07-13T11:51:47;34.80;50.20
69031;DHT22;56083;48.774;8.942;2023-07-13T11:54:47;36.20;48.50
69031;DHT22;56083;48.774;8.942;2023-07-13T11:57:36;35.20;48.50
69031;DHT22;56083;48.774;8.942;2023-07-13T12:00:09;33.60;48.80
69031;DHT22;56083;48.774;8.942;2023-07-13T12:02:42;32.10;51.10
69031;DHT22;56083;48.774;8.942;2023-07-13T12:05:16;31.30;52.50
69031;DHT22;56083;48.774;8.942;2023-07-13T12:07:47;30.50;54.20
69031;DHT22;56083;48.774;8.942;2023-07-13T12:12:58;29.30;56.30
69031;DHT22;56083;48.774;8.942;2023-07-13T12:18:00;31.20;52.90
69031;DHT22;56083;48.774;8.942;2023-07-13T12:20:33;31.00;54.10
69031;DHT22;56083;48.774;8.942;2023-07-13T12:23:00;32.10;53.50
69031;DHT22;56083;48.774;8.942;2023-07-13T12:25:28;34.40;51.50
69031;DHT22;56083;48.774;8.942;2023-07-13T12:27:54;34.60;49.70
69031;DHT22;56083;48.774;8.942;2023-07-13T12:30:30;33.80;50.20
69031;DHT22;56083;48.774;8.942;2023-07-13T12:33:07;32.30;50.70
69031;DHT22;56083;48.774;8.942;2023-07-13T12:35:49;31.10;51.10
69031;DHT22;56083;48.774;8.942;2023-07-13T12:38:18;31.20;54.10
69031;DHT22;56083;48.774;8.942;2023-07-13T12:40:49;30.60;51.70
69031;DHT22;56083;48.774;8.942;2023-07-13T12:43:16;29.90;53.80
69031;DHT22;56083;48.774;8.942;2023-07-13T12:45:59;30.20;55.40
69031;DHT22;56083;48.774;8.942;2023-07-13T12:48:26;31.80;53.20
69031;DHT22;56083;48.774;8.942;2023-07-13T12:50:54;32.70;50.00
69031;DHT22;56083;48.774;8.942;2023-07-13T12:53:22;33.30;49.10
69031;DHT22;56083;48.774;8.942;2023-07-13T12:55:57;33.90;48.40
69031;DHT22;56083;48.774;8.942;2023-07-13T12:58:36;34.50;48.60
69031;DHT22;56083;48.774;8.942;2023-07-13T13:01:02;34.90;47.60
69031;DHT22;56083;48.774;8.942;2023-07-13T13:03:32;36.00;46.90
69031;DHT22;56083;48.774;8.942;2023-07-13T13:06:06;35.10;45.30
69031;DHT22;56083;48.774;8.942;2023-07-13T13:08:57;34.40;45.70
69031;DHT22;56083;48.774;8.942;2023-07-13T13:11:28;33.50;47.40
69031;DHT22;56083;48.774;8.942;2023-07-13T13:13:54;34.40;47.60
69031;DHT22;56083;48.774;8.942;2023-07-13T13:16:46;35.00;46.30
69031;DHT22;56083;48.774;8.942;2023-07-13T13:19:16;36.40;46.70
69031;DHT22;56083;48.774;8.942;2023-07-13T13:21:46;37.80;44.60
69031;DHT22;56083;48.774;8.942;2023-07-13T13:24:21;38.30;44.70
69031;DHT22;56083;48.774;8.942;2023-07-13T13:26:48;37.00;42.70
69031;DHT22;56083;48.774;8.942;2023-07-13T13:29:16;35.60;44.20
69031;DHT22;56083;48.774;8.942;2023-07-13T13:31:42;35.30;44.70
69031;DHT22;56083;48.774;8.942;2023-07-13T13:34:13;35.80;45.40
69031;DHT22;56083;48.774;8.942;2023-07-13T13:36:46;35.10;44.90
69031;DHT22;56083;48.774;8.942;2023-07-13T13:39:31;35.80;46.30
69031;DHT22;56083;48.774;8.942;2023-07-13T13:42:05;36.30;43.20
69031;DHT22;56083;48.774;8.942;2023-07-13T13:44:30;36.10;43.70
69031;DHT22;56083;48.774;8.942;2023-07-13T13:46:56;35.10;45.00
69031;DHT22;56083;48.774;8.942;2023-07-13T13:49:26;34.90;45.50
69031;DHT22;56083;48.774;8.942;2023-07-13T13:51:53;35.60;45.20
69031;DHT22;56083;48.774;8.942;2023-07-13T13:54:19;36.00;45.10
69031;DHT22;56083;48.774;8.942;2023-07-13T13:56:48;35.50;44.90
69031;DHT22;56083;48.774;8.942;2023-07-13T13:59:14;34.10;45.20
69031;DHT22;56083;48.774;8.942;2023-07-13T14:01:41;33.30;46.90
69031;DHT22;56083;48.774;8.942;2023-07-13T14:04:14;33.40;47.10
69031;DHT22;56083;48.774;8.942;2023-07-13T14:06:40;33.10;47.10
69031;DHT22;56083;48.774;8.942;2023-07-13T14:09:14;31.60;48.20
69031;DHT22;56083;48.774;8.942;2023-07-13T14:11:41;30.80;49.30
69031;DHT22;56083;48.774;8.942;2023-07-13T14:14:26;30.70;52.00
69031;DHT22;56083;48.774;8.942;2023-07-13T14:16:53;31.30;52.10
69031;DHT22;56083;48.774;8.942;2023-07-13T14:19:22;31.90;50.30
69031;DHT22;56083;48.774;8.942;2023-07-13T14:21:48;32.80;49.50
69031;DHT22;56083;48.774;8.942;2023-07-13T14:24:17;33.80;48.00
69031;DHT22;56083;48.774;8.942;2023-07-13T14:26:47;34.50;46.30
69031;DHT22;56083;48.774;8.942;2023-07-13T14:29:18;34.40;46.00
69031;DHT22;56083;48.774;8.942;2023-07-13T14:31:44;33.90;48.30
69031;DHT22;56083;48.774;8.942;2023-07-13T14:34:13;34.40;47.80
69031;DHT22;56083;48.774;8.942;2023-07-13T14:36:47;35.10;46.60
69031;DHT22;56083;48.774;8.942;2023-07-13T14:39:20;35.50;45.30
69031;DHT22;56083;48.774;8.942;2023-07-13T14:41:51;35.80;46.40
69031;DHT22;56083;48.774;8.942;2023-07-13T14:44:19;35.80;44.30
69031;DHT22;56083;48.774;8.942;2023-07-13T14:46:46;35.30;46.30
69031;DHT22;56083;48.774;8.942;2023-07-13T14:49:42;35.20;46.30
69031;DHT22;56083;48.774;8.942;2023-07-13T14:52:17;34.80;45.50
69031;DHT22;56083;48.774;8.942;2023-07-13T14:54:44;35.00;45.20
69031;DHT22;56083;48.774;8.942;2023-07-13T14:57:16;35.00;44.90
69031;DHT22;56083;48.774;8.942;2023-07-13T14:59:42;34.10;46.00
69031;DHT22;56083;48.774;8.942;2023-07-13T15:02:34;33.50;46.50
69031;DHT22;56083;48.774;8.942;2023-07-13T15:05:15;32.80;48.50
69031;DHT22;56083;48.774;8.942;2023-07-13T15:07:41;32.00;49.50
69031;DHT22;56083;48.774;8.942;2023-07-13T15:10:19;31.70;49.40
69031;DHT22;56083;48.774;8.942;2023-07-13T15:12:46;31.70;48.90
69031;DHT22;56083;48.774;8.942;2023-07-13T15:15:14;31.80;50.00
69031;DHT22;56083;48.774;8.942;2023-07-13T15:17:45;32.10;48.60
69031;DHT22;56083;48.774;8.942;2023-07-13T15:20:33;31.80;48.40
69031;DHT22;56083;48.774;8.942;2023-07-13T15:22:58;31.30;48.90
69031;DHT22;56083;48.774;8.942;2023-07-13T15:25:26;31.20;49.60
69031;DHT22;56083;48.774;8.942;2023-07-13T15:27:56;31.10;49.90
69031;DHT22;56083;48.774;8.942;2023-07-13T15:30:46;30.10;51.00
69031;DHT22;56083;48.774;8.942;2023-07-13T15:33:25;29.70;52.70
69031;DHT22;56083;48.774;8.942;2023-07-13T15:35:52;29.60;52.50
69031;DHT22;56083;48.774;8.942;2023-07-13T15:38:33;30.00;52.60
69031;DHT22;56083;48.774;8.942;2023-07-13T15:41:19;30.80;51.20
69031;DHT22;56083;48.774;8.942;2023-07-13T15:43:46;31.10;50.50
69031;DHT22;56083;48.774;8.942;2023-07-13T15:46:12;31.20;50.60
69031;DHT22;56083;48.774;8.942;2023-07-13T15:48:41;30.80;50.10
69031;DHT22;56083;48.774;8.942;2023-07-13T15:51:18;30.70;52.20
69031;DHT22;56083;48.774;8.942;2023-07-13T15:53:45;29.90;51.00
69031;DHT22;56083;48.774;8.942;2023-07-13T15:56:22;29.40;52.90
69031;DHT22;56083;48.774;8.942;2023-07-13T15:58:49;29.20;54.30
69031;DHT22;56083;48.774;8.942;2023-07-13T16:01:16;29.20;54.30
69031;DHT22;56083;48.774;8.942;2023-07-13T16:03:42;29.00;54.50
69031;DHT22;56083;48.774;8.942;2023-07-13T16:06:38;28.50;54.70
69031;DHT22;56083;48.774;8.942;2023-07-13T16:09:08;28.30;55.80
69031;DHT22;56083;48.774;8.942;2023-07-13T16:11:37;28.90;54.80
69031;DHT22;56083;48.774;8.942;2023-07-13T16:14:13;29.60;53.60
69031;DHT22;56083;48.774;8.942;2023-07-13T16:16:39;30.20;53.10
69031;DHT22;56083;48.774;8.942;2023-07-13T16:19:05;30.70;51.00
69031;DHT22;56083;48.774;8.942;2023-07-13T16:21:43;30.90;50.40